Terminal Aerodrome Forecast
Issued by NWS

Home | Current Version | Previous Version | Text Only | Print | Product List | Glossary On
Versions: 1 2 3 4 5 6 7 8 9 10 11 12 13 14 15 16 17 18 19 20 21 22 23 24
000
FTUS46 KSGX 161700
TAFSAN
TAF
KSAN 161720Z 1618/1724 VRB05KT P6SM SCT120 WS020/12015KT
     FM161900 29009KT P6SM SCT100 WS020/12015KT
     FM162200 29009KT P6SM SCT100
     FM170200 VRB04KT P6SM FEW100
     FM171900 28009KT P6SM SCT100=

USA.gov is the U.S. government's official web portal to all federal, state and local government web resources and services.